Time;durP1;ratioP1;P1;durP2;ratioP2;P2;SDS_P1;SDS_P2;PMS_P1;PMS_P2;Temp;Humidity;BMP_temperature;BMP_pressure;BME280_temperature;BME280_humidity;BME280_pressure;Samples;Min_cycle;Max_cycle;Signal;HPM_P1;HPM_P2
2023/07/19 00:00:56;;;;;;;5.82;4.80;;;16.90;99.90;;;;;;7370221;19;20105;-58
2023/07/19 00:03:25;;;;;;;6.55;4.45;;;17.00;99.90;;;;;;7371803;19;20042;-58
2023/07/19 00:05:51;;;;;;;6.32;5.38;;;16.90;99.90;;;;;;7372183;19;20014;-58
2023/07/19 00:08:17;;;;;;;7.63;4.70;;;16.90;99.90;;;;;;7371154;19;20026;-58
2023/07/19 00:10:43;;;;;;;8.45;4.72;;;16.90;99.90;;;;;;7370711;19;20018;-58
2023/07/19 00:13:10;;;;;;;7.68;5.22;;;16.80;99.90;;;;;;7368896;19;20018;-58
2023/07/19 00:15:36;;;;;;;8.23;5.07;;;16.80;99.90;;;;;;7370194;19;20023;-59
2023/07/19 00:18:02;;;;;;;6.28;4.50;;;16.80;99.90;;;;;;7361446;19;20014;-58
2023/07/19 00:20:28;;;;;;;8.95;5.30;;;16.80;99.90;;;;;;7363367;19;20094;-59
2023/07/19 00:22:57;;;;;;;6.95;4.47;;;16.80;99.90;;;;;;7368194;19;20014;-59
2023/07/19 00:25:24;;;;;;;5.80;5.13;;;16.80;99.90;;;;;;7369465;19;20074;-58
2023/07/19 00:27:50;;;;;;;7.80;4.85;;;16.70;99.90;;;;;;7365426;19;20049;-60
2023/07/19 00:30:17;;;;;;;9.38;4.65;;;16.70;99.90;;;;;;7372472;19;20581;-60
2023/07/19 00:32:43;;;;;;;6.30;4.43;;;16.60;99.90;;;;;;7371143;19;20042;-58
2023/07/19 00:35:10;;;;;;;7.30;4.78;;;16.70;99.90;;;;;;7369541;19;20105;-59
2023/07/19 00:37:36;;;;;;;8.27;4.72;;;16.70;99.90;;;;;;7370548;19;20022;-58
2023/07/19 00:40:03;;;;;;;8.20;5.15;;;16.70;99.90;;;;;;7376498;19;20085;-59
2023/07/19 00:42:30;;;;;;;6.65;4.20;;;16.70;99.90;;;;;;7368383;19;20018;-59
2023/07/19 00:44:56;;;;;;;8.15;4.35;;;16.60;99.90;;;;;;7371116;19;20033;-58
2023/07/19 00:47:23;;;;;;;6.68;4.70;;;16.70;99.90;;;;;;7370747;19;20053;-59
2023/07/19 00:49:49;;;;;;;7.28;4.70;;;16.70;99.90;;;;;;7371534;19;20022;-59
2023/07/19 00:52:17;;;;;;;7.63;4.60;;;16.60;99.90;;;;;;7371201;19;20086;-58
2023/07/19 00:54:44;;;;;;;8.23;4.13;;;16.70;99.90;;;;;;7373101;19;20029;-59
2023/07/19 00:57:13;;;;;;;8.25;5.30;;;16.70;99.90;;;;;;7376102;19;20018;-58
2023/07/19 00:59:41;;;;;;;8.50;4.53;;;16.70;99.90;;;;;;7375820;19;20039;-58
2023/07/19 01:02:07;;;;;;;7.32;4.50;;;16.70;99.90;;;;;;7375703;19;20030;-58
2023/07/19 01:04:35;;;;;;;6.50;4.40;;;16.70;99.90;;;;;;7375937;19;20078;-58
2023/07/19 01:07:03;;;;;;;6.63;4.35;;;16.70;99.90;;;;;;7375152;19;20537;-59
2023/07/19 01:09:30;;;;;;;9.25;5.00;;;16.70;99.90;;;;;;7375495;19;20342;-59
2023/07/19 01:11:56;;;;;;;11.02;4.75;;;16.70;99.90;;;;;;7373300;19;20521;-58
2023/07/19 01:14:22;;;;;;;6.55;4.20;;;16.70;99.90;;;;;;7371248;19;20022;-59
2023/07/19 01:16:51;;;;;;;9.82;4.90;;;16.70;99.90;;;;;;7374074;19;20669;-59
2023/07/19 01:19:18;;;;;;;6.90;4.53;;;16.70;99.90;;;;;;7373404;19;20014;-60
2023/07/19 01:21:44;;;;;;;6.90;4.57;;;16.70;99.90;;;;;;7369081;19;20022;-60
2023/07/19 01:24:10;;;;;;;8.23;4.63;;;16.70;99.90;;;;;;7369825;19;20037;-60
2023/07/19 01:26:38;;;;;;;11.05;4.57;;;16.60;99.90;;;;;;7363292;19;20014;-60
2023/07/19 01:29:05;;;;;;;6.93;4.35;;;16.60;99.90;;;;;;7371570;19;20045;-59
2023/07/19 01:31:31;;;;;;;7.07;4.45;;;16.60;99.90;;;;;;7370843;19;20089;-59
2023/07/19 01:33:58;;;;;;;8.20;4.30;;;16.60;99.90;;;;;;7368198;19;20584;-58
2023/07/19 01:36:25;;;;;;;9.95;4.70;;;16.60;99.90;;;;;;7371069;19;20470;-58
2023/07/19 01:38:52;;;;;;;8.18;5.28;;;16.60;99.90;;;;;;7372083;19;20018;-59
2023/07/19 01:41:19;;;;;;;10.40;5.05;;;16.50;99.90;;;;;;7373200;19;20486;-58
2023/07/19 01:43:45;;;;;;;7.65;4.82;;;16.50;99.90;;;;;;7373646;19;20014;-59
2023/07/19 01:46:12;;;;;;;10.77;5.20;;;16.50;99.90;;;;;;7371517;19;20438;-59
2023/07/19 01:48:39;;;;;;;9.52;5.10;;;16.50;99.90;;;;;;7370519;19;20054;-61
2023/07/19 01:51:05;;;;;;;7.82;5.22;;;16.50;99.90;;;;;;7373124;19;20037;-59
2023/07/19 01:53:32;;;;;;;7.80;5.68;;;16.40;99.90;;;;;;7370717;19;20014;-59
2023/07/19 01:55:59;;;;;;;7.80;5.30;;;16.40;99.90;;;;;;7375505;19;20374;-60
2023/07/19 01:58:25;;;;;;;7.72;4.82;;;16.40;99.90;;;;;;7369257;19;20556;-60
2023/07/19 02:00:55;;;;;;;8.85;5.72;;;16.40;99.90;;;;;;7371061;19;20730;-60
2023/07/19 02:03:23;;;;;;;9.45;5.65;;;16.40;99.90;;;;;;7368919;19;20026;-60
2023/07/19 02:06:01;;;;;;;11.02;5.53;;;16.40;99.90;;;;;;7369928;19;20015;-60
2023/07/19 02:08:27;;;;;;;8.98;5.78;;;16.30;99.90;;;;;;7369496;19;20022;-60
2023/07/19 02:10:56;;;;;;;6.32;5.72;;;16.40;99.90;;;;;;7371598;19;20018;-60
2023/07/19 02:13:22;;;;;;;7.00;5.43;;;16.30;99.90;;;;;;7372941;19;20018;-60
2023/07/19 02:15:49;;;;;;;7.10;5.47;;;16.30;99.90;;;;;;7369080;19;20402;-60
2023/07/19 02:18:17;;;;;;;7.72;5.20;;;16.20;99.90;;;;;;7362103;19;20537;-60
2023/07/19 02:20:45;;;;;;;6.88;5.68;;;16.20;99.90;;;;;;7371193;19;20022;-60
2023/07/19 02:23:11;;;;;;;7.20;5.43;;;16.20;99.90;;;;;;7369543;19;20018;-59
2023/07/19 02:25:40;;;;;;;7.35;5.82;;;16.20;99.90;;;;;;7367468;19;20019;-60
2023/07/19 02:28:07;;;;;;;9.55;6.32;;;16.20;99.90;;;;;;7370179;19;20103;-59
2023/07/19 02:30:34;;;;;;;8.15;5.93;;;16.20;99.90;;;;;;7370101;19;20018;-59
2023/07/19 02:33:00;;;;;;;7.75;5.90;;;16.10;99.90;;;;;;7369921;19;20800;-60
2023/07/19 02:35:26;;;;;;;8.57;5.80;;;16.20;99.90;;;;;;7375059;19;20982;-60
2023/07/19 02:37:53;;;;;;;6.88;5.93;;;16.20;99.90;;;;;;7370768;19;20464;-61
2023/07/19 02:40:19;;;;;;;9.35;6.30;;;16.20;99.90;;;;;;7372983;19;20471;-59
2023/07/19 02:42:45;;;;;;;7.50;6.32;;;16.20;99.90;;;;;;7373954;19;20023;-59
2023/07/19 02:45:11;;;;;;;11.60;6.68;;;16.20;99.90;;;;;;7366135;19;20648;-59
2023/07/19 02:47:37;;;;;;;7.35;6.35;;;16.20;99.90;;;;;;7368147;19;20021;-60
2023/07/19 02:50:04;;;;;;;10.35;6.80;;;16.10;99.90;;;;;;7372980;19;20470;-60
2023/07/19 02:52:32;;;;;;;7.63;6.32;;;16.10;99.90;;;;;;7369907;19;20073;-59
2023/07/19 02:54:58;;;;;;;8.95;6.55;;;16.10;99.90;;;;;;7365763;19;20429;-59
2023/07/19 02:57:24;;;;;;;8.50;6.50;;;16.10;99.90;;;;;;7369252;19;20010;-59
2023/07/19 02:59:50;;;;;;;7.40;6.50;;;16.10;99.90;;;;;;7370839;19;20086;-60
2023/07/19 03:02:17;;;;;;;7.95;7.03;;;16.10;99.90;;;;;;7366919;19;20314;-59
2023/07/19 03:04:43;;;;;;;10.45;6.88;;;16.10;99.90;;;;;;7370101;19;20022;-60
2023/07/19 03:07:10;;;;;;;12.40;7.20;;;16.00;99.90;;;;;;7362996;19;20096;-59
2023/07/19 03:09:36;;;;;;;10.27;7.00;;;16.00;99.90;;;;;;7367790;19;20493;-59
2023/07/19 03:12:03;;;;;;;11.20;7.35;;;16.00;99.90;;;;;;7369031;19;20547;-60
2023/07/19 03:14:30;;;;;;;9.30;8.10;;;16.00;99.90;;;;;;7365351;19;20022;-59
2023/07/19 03:16:57;;;;;;;10.68;7.25;;;15.90;99.90;;;;;;7366901;19;20057;-59
2023/07/19 03:19:23;;;;;;;12.52;8.15;;;15.90;99.90;;;;;;7364251;19;20089;-59
2023/07/19 03:21:50;;;;;;;11.07;8.00;;;15.90;99.90;;;;;;7363554;19;20188;-59
2023/07/19 03:24:16;;;;;;;13.23;7.93;;;15.90;99.90;;;;;;7365320;19;20014;-60
2023/07/19 03:26:43;;;;;;;9.30;7.32;;;16.00;99.90;;;;;;7362107;19;20445;-59
2023/07/19 03:29:10;;;;;;;11.07;8.57;;;15.90;99.90;;;;;;7365568;19;20019;-60
2023/07/19 03:31:37;;;;;;;12.15;8.25;;;15.90;99.90;;;;;;7366646;19;20549;-60
2023/07/19 03:34:03;;;;;;;9.98;8.50;;;15.90;99.90;;;;;;7368749;19;20502;-59
2023/07/19 03:36:30;;;;;;;10.77;8.07;;;15.90;99.90;;;;;;7368193;19;20019;-59
2023/07/19 03:38:56;;;;;;;10.23;7.95;;;15.90;99.90;;;;;;7370018;19;20022;-59
2023/07/19 03:41:23;;;;;;;9.85;8.10;;;15.90;99.90;;;;;;7368268;19;20014;-58
2023/07/19 03:43:50;;;;;;;13.18;8.75;;;15.90;99.90;;;;;;7367860;19;20362;-59
2023/07/19 03:46:16;;;;;;;10.65;8.65;;;15.90;99.90;;;;;;7367055;19;20374;-60
2023/07/19 03:48:43;;;;;;;14.30;8.50;;;15.90;99.90;;;;;;7368144;19;20014;-60
2023/07/19 03:51:09;;;;;;;11.02;8.30;;;15.90;99.90;;;;;;7370313;19;20572;-60
2023/07/19 03:53:36;;;;;;;12.02;8.35;;;15.90;99.90;;;;;;7369387;19;20041;-60
2023/07/19 03:56:02;;;;;;;11.30;9.10;;;15.90;99.90;;;;;;7365146;19;20058;-59
2023/07/19 03:58:29;;;;;;;12.23;9.93;;;15.90;99.90;;;;;;7364881;19;20484;-58
2023/07/19 04:00:59;;;;;;;14.55;10.60;;;15.90;99.90;;;;;;7363078;19;20485;-59
2023/07/19 04:03:47;;;;;;;14.18;10.98;;;15.90;99.90;;;;;;7365853;19;20049;-59
2023/07/19 04:06:13;;;;;;;13.80;11.30;;;15.80;99.90;;;;;;7367173;19;20018;-60
2023/07/19 04:08:41;;;;;;;13.40;11.88;;;15.80;99.90;;;;;;7367823;19;20037;-59
2023/07/19 04:11:07;;;;;;;13.10;11.15;;;15.80;99.90;;;;;;7364777;19;20022;-60
2023/07/19 04:13:34;;;;;;;15.30;13.20;;;15.80;99.90;;;;;;7368529;19;20023;-59
2023/07/19 04:16:00;;;;;;;15.07;12.60;;;15.80;99.90;;;;;;7364983;19;20375;-63
2023/07/19 04:18:27;;;;;;;17.83;11.77;;;15.90;99.90;;;;;;7363277;19;20801;-59
2023/07/19 04:20:58;;;;;;;13.65;12.00;;;15.90;99.90;;;;;;7368426;19;20366;-59
2023/07/19 04:23:25;;;;;;;19.67;14.27;;;15.90;99.90;;;;;;7366219;19;20601;-59
2023/07/19 04:25:52;;;;;;;16.63;14.27;;;16.00;99.90;;;;;;7362895;19;20078;-59
2023/07/19 04:28:20;;;;;;;17.00;14.43;;;16.00;99.90;;;;;;7365542;19;20018;-59
2023/07/19 04:30:46;;;;;;;15.18;13.57;;;16.00;99.90;;;;;;7364012;19;20018;-60
2023/07/19 04:33:15;;;;;;;19.13;14.45;;;16.00;99.90;;;;;;7366865;19;20018;-60
2023/07/19 04:35:41;;;;;;;18.25;13.85;;;16.00;99.90;;;;;;7364787;19;20473;-59
2023/07/19 04:38:08;;;;;;;16.40;14.80;;;16.00;99.90;;;;;;7368965;19;20018;-59
2023/07/19 04:40:34;;;;;;;16.02;14.27;;;16.10;99.90;;;;;;7362133;19;20440;-58
2023/07/19 04:43:01;;;;;;;17.02;15.18;;;16.10;99.90;;;;;;7363506;19;20106;-59
2023/07/19 04:45:30;;;;;;;17.98;15.15;;;16.10;99.90;;;;;;7364386;19;20482;-57
2023/07/19 04:47:57;;;;;;;17.23;15.25;;;16.20;99.90;;;;;;7367865;19;20041;-59
2023/07/19 04:50:24;;;;;;;17.63;14.82;;;16.20;99.90;;;;;;7363324;19;20393;-60
2023/07/19 04:52:53;;;;;;;17.70;13.38;;;16.20;99.90;;;;;;7363392;19;20014;-60
2023/07/19 04:55:21;;;;;;;17.85;13.10;;;16.30;99.90;;;;;;7365156;19;20023;-60
2023/07/19 04:57:47;;;;;;;16.85;13.00;;;16.30;99.90;;;;;;7366420;19;20018;-60
2023/07/19 05:00:14;;;;;;;13.57;11.95;;;16.30;99.90;;;;;;7366251;19;20015;-58
2023/07/19 05:02:41;;;;;;;14.80;12.57;;;16.30;99.90;;;;;;7363922;19;20026;-59
2023/07/19 05:05:08;;;;;;;16.98;12.38;;;16.40;99.90;;;;;;7358922;19;20010;-59
2023/07/19 05:07:36;;;;;;;14.23;11.93;;;16.40;99.90;;;;;;7366637;19;20018;-58
2023/07/19 05:10:04;;;;;;;12.50;11.20;;;16.40;99.90;;;;;;7363703;19;20452;-60
2023/07/19 05:12:31;;;;;;;14.07;12.57;;;16.40;99.90;;;;;;7366669;19;20023;-59
2023/07/19 05:14:58;;;;;;;16.88;11.43;;;16.50;99.90;;;;;;7367240;19;20059;-59
2023/07/19 05:17:25;;;;;;;13.25;11.10;;;16.50;99.90;;;;;;7368955;19;20366;-59
2023/07/19 05:19:51;;;;;;;14.82;11.05;;;16.50;99.90;;;;;;7364617;19;20015;-59
2023/07/19 05:22:18;;;;;;;12.05;10.38;;;16.50;99.90;;;;;;7369621;19;20559;-60
2023/07/19 05:24:45;;;;;;;25.33;22.58;;;16.50;99.90;;;;;;7370943;19;20018;-64
2023/07/19 05:27:15;;;;;;;13.15;9.63;;;16.50;99.90;;;;;;7367098;19;20026;-60
2023/07/19 05:29:41;;;;;;;11.32;9.85;;;16.50;99.90;;;;;;7363896;19;20018;-60
2023/07/19 05:32:09;;;;;;;10.35;9.27;;;16.50;99.90;;;;;;7366248;19;20456;-60
2023/07/19 05:34:35;;;;;;;10.55;9.25;;;16.50;99.90;;;;;;7369554;19;20469;-57
2023/07/19 05:37:03;;;;;;;12.30;9.55;;;16.50;99.90;;;;;;7367353;19;20035;-57
2023/07/19 05:39:30;;;;;;;12.00;9.40;;;16.50;99.90;;;;;;7370290;19;20022;-57
2023/07/19 05:41:57;;;;;;;10.52;8.73;;;16.50;99.90;;;;;;7368336;19;20462;-57
2023/07/19 05:44:23;;;;;;;13.82;9.38;;;16.50;99.90;;;;;;7377380;19;20019;-57
2023/07/19 05:46:49;;;;;;;10.70;8.68;;;16.50;99.90;;;;;;7371724;19;20450;-57
2023/07/19 05:49:16;;;;;;;11.07;9.20;;;16.50;99.90;;;;;;7373790;19;20018;-58
2023/07/19 05:51:42;;;;;;;8.63;7.35;;;16.50;99.90;;;;;;7374133;19;20456;-61
2023/07/19 05:54:09;;;;;;;9.18;7.28;;;16.50;99.90;;;;;;7375638;19;20482;-61
2023/07/19 05:56:39;;;;;;;8.70;7.65;;;16.50;99.90;;;;;;7372143;19;20022;-60
2023/07/19 05:59:05;;;;;;;11.18;7.70;;;16.50;99.90;;;;;;7374242;19;20482;-60
2023/07/19 06:01:35;;;;;;;12.23;7.88;;;16.50;99.90;;;;;;7374448;19;20038;-60
2023/07/19 06:04:01;;;;;;;9.80;7.07;;;16.60;99.90;;;;;;7375485;19;20018;-57
2023/07/19 06:06:28;;;;;;;8.95;5.88;;;16.60;99.90;;;;;;7374402;19;20011;-60
2023/07/19 06:08:55;;;;;;;10.20;5.60;;;16.60;99.90;;;;;;7374068;19;20713;-60
2023/07/19 06:11:22;;;;;;;11.35;5.32;;;16.60;99.90;;;;;;7377819;19;20495;-60
2023/07/19 06:13:48;;;;;;;8.32;5.47;;;16.60;99.90;;;;;;7376136;19;20498;-60
2023/07/19 06:16:14;;;;;;;8.05;5.32;;;16.60;99.90;;;;;;7375929;19;20084;-61
2023/07/19 06:18:41;;;;;;;6.75;4.70;;;16.60;99.90;;;;;;7376086;19;20033;-64
2023/07/19 06:21:07;;;;;;;8.15;5.00;;;16.60;99.90;;;;;;7371860;19;20060;-57
2023/07/19 06:23:33;;;;;;;9.35;4.88;;;16.60;99.90;;;;;;7376555;19;20014;-57
2023/07/19 06:26:03;;;;;;;7.20;5.07;;;16.60;99.90;;;;;;7373613;19;20018;-57
2023/07/19 06:28:32;;;;;;;10.93;5.43;;;16.70;99.90;;;;;;7375249;19;20649;-60
2023/07/19 06:30:59;;;;;;;8.63;5.30;;;16.70;99.90;;;;;;7370150;19;20093;-57
2023/07/19 06:33:26;;;;;;;10.27;5.22;;;16.70;99.90;;;;;;7366079;19;20014;-57
2023/07/19 06:35:52;;;;;;;8.60;5.15;;;16.70;99.90;;;;;;7371271;19;20096;-57
2023/07/19 06:38:18;;;;;;;7.82;5.13;;;16.80;99.90;;;;;;7373118;19;20385;-57
2023/07/19 06:40:44;;;;;;;11.63;6.18;;;17.00;99.90;;;;;;7375919;19;20017;-56
2023/07/19 06:43:10;;;;;;;6.97;5.82;;;17.10;99.90;;;;;;7371238;19;20510;-56
2023/07/19 06:45:37;;;;;;;7.82;4.78;;;17.20;99.90;;;;;;7373118;19;20022;-56
2023/07/19 06:48:03;;;;;;;8.55;4.45;;;17.30;99.90;;;;;;7370715;19;20019;-57
2023/07/19 06:50:31;;;;;;;7.70;4.50;;;17.30;99.90;;;;;;7374072;19;20027;-57
2023/07/19 06:52:59;;;;;;;9.40;3.90;;;17.30;99.90;;;;;;7368365;19;20018;-56
2023/07/19 06:55:27;;;;;;;7.75;3.92;;;17.40;99.90;;;;;;7371784;19;20419;-56
2023/07/19 06:57:54;;;;;;;7.00;3.33;;;17.40;99.90;;;;;;7369258;19;20025;-56
2023/07/19 07:00:20;;;;;;;7.70;3.28;;;17.40;99.90;;;;;;7368445;19;20015;-57
2023/07/19 07:02:46;;;;;;;7.50;2.45;;;17.50;99.90;;;;;;7370414;19;20321;-56
2023/07/19 07:05:13;;;;;;;6.60;3.15;;;17.60;99.90;;;;;;7366136;19;20091;-56
2023/07/19 07:07:39;;;;;;;5.55;2.50;;;17.50;99.90;;;;;;7371068;19;20023;-56
2023/07/19 07:10:08;;;;;;;6.00;3.05;;;17.60;99.90;;;;;;7372011;19;20451;-57
2023/07/19 07:12:36;;;;;;;4.82;2.47;;;17.70;99.90;;;;;;7372348;19;20044;-60
2023/07/19 07:15:03;;;;;;;4.60;2.28;;;17.90;99.90;;;;;;7370849;19;20031;-60
2023/07/19 07:17:32;;;;;;;4.82;2.50;;;17.90;99.90;;;;;;7369004;19;20018;-60
2023/07/19 07:19:58;;;;;;;4.97;2.35;;;18.00;99.90;;;;;;7373449;19;20048;-56
2023/07/19 07:22:24;;;;;;;4.45;2.30;;;18.10;99.90;;;;;;7375534;19;20033;-56
2023/07/19 07:24:50;;;;;;;5.85;2.80;;;18.10;99.90;;;;;;7374806;19;20030;-56
2023/07/19 07:27:17;;;;;;;3.63;2.20;;;18.20;99.90;;;;;;7371956;19;20029;-61
2023/07/19 07:29:43;;;;;;;3.88;2.10;;;18.20;99.90;;;;;;7366696;19;20014;-61
2023/07/19 07:32:13;;;;;;;5.50;2.58;;;18.40;99.90;;;;;;7371513;19;20577;-61
2023/07/19 07:34:39;;;;;;;4.97;2.25;;;18.50;99.90;;;;;;7373560;19;20379;-61
2023/07/19 07:37:06;;;;;;;5.57;2.47;;;18.50;99.90;;;;;;7369729;19;20078;-60
2023/07/19 07:39:34;;;;;;;5.38;2.42;;;18.60;99.90;;;;;;7368989;19;21543;-56
2023/07/19 07:42:01;;;;;;;4.78;2.33;;;18.60;99.90;;;;;;7371840;19;20425;-58
2023/07/19 07:44:29;;;;;;;5.28;2.40;;;18.60;99.90;;;;;;7368636;19;20363;-60
2023/07/19 07:46:56;;;;;;;5.18;2.45;;;18.60;99.90;;;;;;7368146;19;20079;-61
2023/07/19 07:49:22;;;;;;;9.00;3.28;;;18.70;99.90;;;;;;7367309;19;20043;-61
2023/07/19 07:51:48;;;;;;;3.60;2.60;;;18.60;99.90;;;;;;7370610;19;20501;-61
2023/07/19 07:54:15;;;;;;;4.72;2.60;;;18.70;99.90;;;;;;7368400;19;20453;-67
2023/07/19 07:56:41;;;;;;;6.72;3.20;;;18.70;99.90;;;;;;7370521;19;20746;-65
2023/07/19 07:59:07;;;;;;;7.28;3.22;;;18.70;99.90;;;;;;7373564;19;20319;-62
2023/07/19 08:01:34;;;;;;;5.38;2.88;;;18.70;99.90;;;;;;7372584;19;20020;-62
2023/07/19 08:04:01;;;;;;;4.40;2.60;;;18.80;99.90;;;;;;7371432;19;20353;-62
2023/07/19 08:06:27;;;;;;;5.75;2.85;;;18.90;99.90;;;;;;7361716;19;20006;-62
2023/07/19 08:08:53;;;;;;;5.70;3.30;;;18.90;99.90;;;;;;7368657;19;20603;-61
2023/07/19 08:11:21;;;;;;;7.05;2.55;;;18.70;99.90;;;;;;7372079;19;20840;-61
2023/07/19 08:13:48;;;;;;;5.88;2.90;;;18.90;99.90;;;;;;7369253;19;20014;-61
2023/07/19 08:16:14;;;;;;;6.38;2.85;;;18.80;99.90;;;;;;7364605;19;20039;-62
2023/07/19 08:18:41;;;;;;;5.07;2.65;;;18.70;99.90;;;;;;7370572;19;20469;-61
2023/07/19 08:21:07;;;;;;;6.35;2.95;;;18.80;99.90;;;;;;7373125;19;20037;-61
2023/07/19 08:23:33;;;;;;;5.07;2.40;;;18.90;99.90;;;;;;7373862;19;20406;-63
2023/07/19 08:26:00;;;;;;;6.28;2.55;;;19.10;99.90;;;;;;7365616;19;20053;-57
2023/07/19 08:28:26;;;;;;;7.38;2.63;;;19.30;99.90;;;;;;7365931;19;20118;-57
2023/07/19 08:30:53;;;;;;;5.38;2.17;;;19.30;99.90;;;;;;7370941;19;20022;-57
2023/07/19 08:33:21;;;;;;;5.45;2.03;;;19.40;99.90;;;;;;7375392;19;20027;-58
2023/07/19 08:35:49;;;;;;;7.65;2.50;;;19.40;99.90;;;;;;7368167;19;20088;-58
2023/07/19 08:38:16;;;;;;;6.45;2.35;;;19.50;99.90;;;;;;7365811;19;20033;-58
2023/07/19 08:40:54;;;;;;;4.55;2.28;;;19.60;99.90;;;;;;7360758;19;20015;-57
2023/07/19 08:43:25;;;;;;;6.30;2.28;;;19.70;99.90;;;;;;7359021;19;20014;-58
2023/07/19 08:45:51;;;;;;;4.77;2.03;;;19.90;99.90;;;;;;7355347;19;20650;-57
2023/07/19 08:48:18;;;;;;;5.55;2.10;;;20.00;99.90;;;;;;7362116;19;20022;-57
2023/07/19 08:50:49;;;;;;;3.22;2.15;;;20.00;99.90;;;;;;7359977;19;20027;-57
2023/07/19 08:53:15;;;;;;;5.55;2.90;;;20.00;99.90;;;;;;7366941;19;20014;-63
2023/07/19 08:55:42;;;;;;;5.07;1.88;;;20.10;99.90;;;;;;7363946;19;20028;-61
2023/07/19 08:58:08;;;;;;;5.43;3.05;;;20.10;99.90;;;;;;7355482;19;20877;-59
2023/07/19 09:00:35;;;;;;;7.28;2.67;;;20.10;99.90;;;;;;7360332;19;20098;-57
2023/07/19 09:03:01;;;;;;;5.57;1.92;;;20.10;99.90;;;;;;7359812;19;20035;-58
2023/07/19 09:05:30;;;;;;;4.28;2.47;;;20.10;99.90;;;;;;7366689;19;20106;-57
2023/07/19 09:08:00;;;;;;;5.15;2.10;;;20.20;99.90;;;;;;7368644;19;20026;-60
2023/07/19 09:10:26;;;;;;;4.97;1.88;;;20.20;99.90;;;;;;7367511;19;20650;-60
2023/07/19 09:12:53;;;;;;;3.58;1.85;;;20.20;99.90;;;;;;7365872;19;20018;-58
2023/07/19 09:15:20;;;;;;;4.70;2.20;;;20.20;99.90;;;;;;7365312;19;20362;-60
2023/07/19 09:17:48;;;;;;;4.60;2.08;;;20.30;99.90;;;;;;7369871;19;20373;-60
2023/07/19 09:20:17;;;;;;;4.30;1.70;;;20.30;99.90;;;;;;7371529;19;20390;-60
2023/07/19 09:22:44;;;;;;;4.65;1.65;;;19.90;99.90;;;;;;7375035;19;20018;-61
2023/07/19 09:25:11;;;;;;;3.35;1.80;;;19.90;99.90;;;;;;7372321;19;20069;-61
2023/07/19 09:27:41;;;;;;;5.60;1.80;;;20.10;99.90;;;;;;7371833;19;20482;-60
2023/07/19 09:30:16;;;;;;;3.90;1.80;;;20.30;99.90;;;;;;7377577;19;20055;-60
2023/07/19 09:32:43;;;;;;;3.33;1.30;;;20.40;99.90;;;;;;7378341;19;20097;-61
2023/07/19 09:35:09;;;;;;;6.20;1.50;;;20.40;99.90;;;;;;7369624;19;20374;-60
2023/07/19 09:37:36;;;;;;;4.18;1.63;;;20.40;99.90;;;;;;7375796;19;20018;-61
2023/07/19 09:40:05;;;;;;;5.32;1.45;;;20.30;99.90;;;;;;7373124;19;20778;-60
2023/07/19 09:42:36;;;;;;;3.57;1.30;;;20.30;99.90;;;;;;7377729;19;20871;-60
2023/07/19 09:45:04;;;;;;;5.25;1.58;;;20.30;99.90;;;;;;7369891;19;20150;-60
2023/07/19 09:47:35;;;;;;;4.05;1.80;;;20.30;99.90;;;;;;7378840;19;20385;-61
2023/07/19 09:50:04;;;;;;;4.70;1.48;;;20.50;99.90;;;;;;7369148;19;20021;-61
2023/07/19 09:52:35;;;;;;;3.90;1.73;;;20.90;99.90;;;;;;7373495;19;20014;-60
2023/07/19 09:55:03;;;;;;;3.58;1.33;;;21.10;99.90;;;;;;7374878;19;20481;-58
2023/07/19 09:57:32;;;;;;;5.25;2.25;;;21.40;99.90;;;;;;7373017;19;20608;-60
2023/07/19 10:00:01;;;;;;;3.38;1.83;;;21.50;99.90;;;;;;7369483;19;20085;-60
2023/07/19 10:02:34;;;;;;;2.97;1.50;;;21.60;99.90;;;;;;7375811;19;20454;-59
2023/07/19 10:05:08;;;;;;;6.38;1.90;;;21.90;99.90;;;;;;7373798;19;20018;-60
2023/07/19 10:07:36;;;;;;;6.75;1.70;;;22.20;99.90;;;;;;7370974;19;20019;-60
2023/07/19 10:10:04;;;;;;;5.30;2.05;;;22.60;99.90;;;;;;7361095;19;20022;-61
2023/07/19 10:12:36;;;;;;;4.80;2.10;;;22.60;99.90;;;;;;7363232;19;20041;-60
2023/07/19 10:15:04;;;;;;;4.22;1.58;;;22.70;99.90;;;;;;7370321;19;20018;-61
2023/07/19 10:17:50;;;;;;;4.18;1.15;;;22.80;99.90;;;;;;7369163;19;20022;-60
2023/07/19 10:20:16;;;;;;;3.58;1.63;;;22.90;99.90;;;;;;7370360;19;20430;-60
2023/07/19 10:22:49;;;;;;;3.00;1.27;;;23.00;99.90;;;;;;7367738;19;20023;-58
2023/07/19 10:25:27;;;;;;;4.72;1.45;;;23.00;99.90;;;;;;7361075;19;20029;-58
2023/07/19 10:27:59;;;;;;;4.32;1.40;;;22.90;99.90;;;;;;7365831;19;20612;-58
2023/07/19 10:30:46;;;;;;;3.80;1.50;;;22.60;99.90;;;;;;7362586;19;20015;-58
2023/07/19 10:33:14;;;;;;;3.75;1.75;;;22.20;99.90;;;;;;7368977;19;20022;-59
2023/07/19 10:35:42;;;;;;;3.58;1.15;;;21.80;99.90;;;;;;7358459;19;20910;-58
2023/07/19 10:38:23;;;;;;;3.88;1.10;;;21.60;99.90;;;;;;7363097;19;20048;-56
2023/07/19 10:40:57;;;;;;;2.85;1.02;;;21.50;99.90;;;;;;7360473;19;20377;-56
2023/07/19 10:43:32;;;;;;;4.25;1.50;;;21.20;99.90;;;;;;7362797;19;20039;-58
2023/07/19 10:46:00;;;;;;;2.65;1.38;;;20.90;99.90;;;;;;7370671;19;20378;-58
2023/07/19 10:48:31;;;;;;;3.42;1.25;;;20.50;99.90;;;;;;7372849;19;20438;-57
2023/07/19 10:50:58;;;;;;;2.33;1.42;;;20.40;99.90;;;;;;7373705;19;20018;-57
2023/07/19 10:53:27;;;;;;;4.97;1.50;;;20.10;99.90;;;;;;7370493;19;20460;-58
2023/07/19 10:55:58;;;;;;;7.13;2.03;;;19.90;99.90;;;;;;7371020;19;20018;-57
2023/07/19 10:58:30;;;;;;;5.80;2.03;;;19.70;99.90;;;;;;7371722;19;20025;-57
2023/07/19 11:00:57;;;;;;;6.95;2.88;;;19.50;99.90;;;;;;7369776;19;20023;-57
2023/07/19 11:03:26;;;;;;;6.93;2.63;;;19.20;99.90;;;;;;7367158;19;20015;-58
2023/07/19 11:05:53;;;;;;;5.65;2.30;;;19.10;99.90;;;;;;7372433;19;20018;-62
2023/07/19 11:08:24;;;;;;;6.07;2.10;;;18.70;99.90;;;;;;7373284;19;20557;-57
2023/07/19 11:10:51;;;;;;;4.60;1.63;;;18.40;99.90;;;;;;7368217;19;20114;-57
2023/07/19 11:13:20;;;;;;;4.07;1.70;;;18.20;99.90;;;;;;7374471;19;20019;-60
2023/07/19 11:15:51;;;;;;;3.08;1.38;;;17.90;99.90;;;;;;7366817;19;20098;-58
2023/07/19 11:18:28;;;;;;;3.92;1.40;;;17.70;99.90;;;;;;7372113;19;20201;-58
2023/07/19 11:20:58;;;;;;;3.42;1.77;;;17.60;99.90;;;;;;7358752;19;20487;-58
2023/07/19 11:23:29;;;;;;;4.13;2.08;;;17.60;99.90;;;;;;7371432;19;20111;-58
2023/07/19 11:26:09;;;;;;;5.65;2.50;;;17.50;99.90;;;;;;7369688;19;20018;-57
2023/07/19 11:28:42;;;;;;;5.13;2.40;;;17.70;99.90;;;;;;7364649;19;20093;-57
2023/07/19 11:31:10;;;;;;;5.72;3.35;;;17.70;99.90;;;;;;7358504;19;20640;-57
2023/07/19 11:33:36;;;;;;;5.45;3.20;;;17.90;99.90;;;;;;7365597;19;20030;-57
2023/07/19 11:36:08;;;;;;;5.15;2.78;;;18.20;99.90;;;;;;7357920;19;20029;-57
2023/07/19 11:38:38;;;;;;;5.22;2.80;;;18.60;99.90;;;;;;7352333;19;20010;-57
2023/07/19 11:41:04;;;;;;;4.05;2.00;;;19.20;99.90;;;;;;7364967;19;20541;-58
2023/07/19 11:43:31;;;;;;;4.35;2.03;;;19.60;99.90;;;;;;7361428;19;20022;-57
2023/07/19 11:45:57;;;;;;;6.13;2.60;;;20.00;99.90;;;;;;7362716;19;20018;-57
2023/07/19 11:48:23;;;;;;;4.43;2.42;;;20.10;99.90;;;;;;7366899;19;20389;-59
2023/07/19 11:50:50;;;;;;;3.90;2.50;;;20.30;99.90;;;;;;7364450;19;20019;-57
2023/07/19 11:53:16;;;;;;;4.82;2.70;;;20.50;99.90;;;;;;7358587;19;20942;-57
2023/07/19 11:55:44;;;;;;;5.68;2.60;;;20.90;99.90;;;;;;7371045;19;20118;-63
2023/07/19 11:58:11;;;;;;;7.60;2.63;;;20.90;99.90;;;;;;7370848;19;20124;-59
2023/07/19 12:00:37;;;;;;;6.13;2.67;;;21.00;99.90;;;;;;7372913;19;20019;-57
2023/07/19 12:03:04;;;;;;;4.45;2.63;;;20.60;99.90;;;;;;7371021;19;20360;-62
2023/07/19 12:05:30;;;;;;;6.20;3.00;;;20.60;99.90;;;;;;7365346;19;20368;-60
2023/07/19 12:07:56;;;;;;;6.38;3.22;;;20.50;99.90;;;;;;7364867;19;20025;-56
2023/07/19 12:10:24;;;;;;;6.70;3.40;;;20.50;99.90;;;;;;7364931;19;20018;-60
2023/07/19 12:12:50;;;;;;;5.88;3.03;;;20.50;99.90;;;;;;7365793;19;20049;-60
2023/07/19 12:15:18;;;;;;;7.43;3.78;;;20.60;99.90;;;;;;7371249;19;20410;-60
2023/07/19 12:17:45;;;;;;;4.93;3.45;;;20.70;99.90;;;;;;7366203;19;20343;-60
2023/07/19 12:20:12;;;;;;;8.45;4.35;;;20.80;99.90;;;;;;7362564;19;21025;-60
2023/07/19 12:22:41;;;;;;;7.18;3.95;;;20.80;99.90;;;;;;7369252;19;20100;-58
2023/07/19 12:25:08;;;;;;;5.95;4.05;;;20.90;99.90;;;;;;7371581;19;20095;-57
2023/07/19 12:27:35;;;;;;;10.20;4.28;;;20.90;99.90;;;;;;7366363;19;20015;-57
2023/07/19 12:30:02;;;;;;;8.23;4.20;;;21.10;99.90;;;;;;7366435;19;20014;-58
2023/07/19 12:32:28;;;;;;;7.45;4.00;;;21.10;99.90;;;;;;7373415;19;20018;-57
2023/07/19 12:34:55;;;;;;;7.03;3.90;;;21.10;99.90;;;;;;7367833;19;20590;-57
2023/07/19 12:37:22;;;;;;;8.60;4.30;;;21.00;99.90;;;;;;7358672;19;20018;-57
2023/07/19 12:39:50;;;;;;;9.63;3.67;;;21.00;99.90;;;;;;7359458;19;20015;-57
2023/07/19 12:42:16;;;;;;;4.63;2.20;;;21.10;99.90;;;;;;7362501;19;20019;-57
2023/07/19 12:44:43;;;;;;;3.25;1.85;;;21.20;99.90;;;;;;7361591;19;21154;-59